Terminal Aerodrome Forecast
Issued by NWS Jackson, MS

Home | Current Version | Previous Version | Text Only | Print | Product List | Glossary On
Versions: 1 2 3 4 5 6 7 8 9 10 11 12
891
FTUS44 KMEG 121120
TAFTUP
TAF
KTUP 121120Z 1212/1312 33010KT P6SM SCT035 BKN150
     FM121500 36015G20KT P6SM FEW030 FEW250
     FM130000 33004KT P6SM SKC=

USA.gov is the U.S. government's official web portal to all federal, state and local government web resources and services.